createdAt,value
2023-01-09T00:00:50.058Z,0.00
2023-01-09T00:01:50.052Z,0.00
2023-01-09T00:02:50.010Z,0.00
2023-01-09T00:03:50.013Z,0.00
2023-01-09T00:05:10.980Z,0.00
2023-01-09T00:05:50.001Z,0.00
2023-01-09T00:06:49.963Z,0.00
2023-01-09T00:07:49.948Z,0.00
2023-01-09T00:08:49.936Z,0.00
2023-01-09T00:09:49.912Z,0.00
2023-01-09T00:11:10.960Z,0.00
2023-01-09T00:11:49.897Z,0.00
2023-01-09T00:12:49.907Z,0.00
2023-01-09T00:13:49.877Z,0.00
2023-01-09T00:14:49.908Z,0.00
2023-01-09T00:15:49.883Z,0.00
2023-01-09T00:17:10.855Z,0.00
2023-01-09T00:17:49.858Z,0.00
2023-01-09T00:18:49.823Z,0.00
2023-01-09T00:19:49.882Z,0.00
2023-01-09T00:20:49.857Z,0.00
2023-01-09T00:21:49.821Z,0.00
2023-01-09T00:23:10.805Z,0.00
2023-01-09T00:23:49.774Z,0.00
2023-01-09T00:24:49.762Z,0.00
2023-01-09T00:25:49.780Z,0.00
2023-01-09T00:26:49.753Z,0.00
2023-01-09T00:27:49.833Z,0.00
2023-01-09T00:29:10.724Z,0.00
2023-01-09T00:29:49.711Z,0.00
2023-01-09T00:30:49.732Z,0.00
2023-01-09T00:31:49.718Z,0.00
2023-01-09T00:32:49.684Z,0.00
2023-01-09T00:33:49.683Z,0.00
2023-01-09T00:35:10.678Z,0.00
2023-01-09T00:35:50.604Z,0.00
2023-01-09T00:36:49.663Z,0.00
2023-01-09T00:37:49.640Z,0.00
2023-01-09T00:38:49.663Z,0.00
2023-01-09T00:39:49.631Z,0.00
2023-01-09T00:41:10.604Z,0.00
2023-01-09T00:41:49.593Z,0.00
2023-01-09T00:42:49.602Z,0.00
2023-01-09T00:43:49.589Z,0.00
2023-01-09T00:44:49.617Z,0.00
2023-01-09T00:45:49.600Z,0.00
2023-01-09T00:47:10.543Z,0.00
2023-01-09T00:47:49.513Z,0.00
2023-01-09T00:48:49.524Z,0.00
2023-01-09T00:49:49.495Z,0.00
2023-01-09T00:50:49.516Z,0.00
2023-01-09T00:51:49.481Z,0.00
2023-01-09T00:53:10.490Z,0.00
2023-01-09T00:53:49.452Z,0.00
2023-01-09T00:54:49.463Z,0.00
2023-01-09T00:55:49.429Z,0.00
2023-01-09T00:56:49.441Z,0.00
2023-01-09T00:57:49.403Z,0.00
2023-01-09T00:59:10.421Z,0.00
2023-01-09T00:59:49.385Z,0.00
2023-01-09T01:00:49.513Z,0.00
2023-01-09T01:01:49.485Z,0.00
2023-01-09T01:02:49.428Z,0.00
2023-01-09T01:03:49.334Z,0.00
2023-01-09T01:05:10.345Z,0.00
2023-01-09T01:05:49.327Z,0.00
2023-01-09T01:06:49.318Z,0.00
2023-01-09T01:07:49.485Z,0.00
2023-01-09T01:08:49.305Z,0.00
2023-01-09T01:09:49.278Z,0.00
2023-01-09T01:11:10.286Z,0.00
2023-01-09T01:11:49.262Z,0.00
2023-01-09T01:12:49.251Z,0.00
2023-01-09T01:13:49.235Z,0.00
2023-01-09T01:14:49.236Z,0.00
2023-01-09T01:15:49.221Z,0.00
2023-01-09T01:17:10.235Z,0.00
2023-01-09T01:17:49.192Z,0.00
2023-01-09T01:18:49.188Z,0.00
2023-01-09T01:19:49.209Z,0.00
2023-01-09T01:20:49.176Z,0.00
2023-01-09T01:21:49.150Z,0.00
2023-01-09T01:23:10.170Z,0.00
2023-01-09T01:23:49.131Z,0.00
2023-01-09T01:24:49.129Z,0.00
2023-01-09T01:25:49.109Z,0.00
2023-01-09T01:26:49.110Z,0.00
2023-01-09T01:27:49.080Z,0.00
2023-01-09T01:29:10.086Z,0.00
2023-01-09T01:29:49.064Z,0.00
2023-01-09T01:30:49.102Z,0.00
2023-01-09T01:31:49.034Z,0.00
2023-01-09T01:32:49.044Z,0.00
2023-01-09T01:33:49.016Z,0.00
2023-01-09T01:35:10.039Z,0.00
2023-01-09T01:35:48.993Z,0.00
2023-01-09T01:36:49.021Z,0.00
2023-01-09T01:37:48.968Z,0.00
2023-01-09T01:38:48.990Z,0.00
2023-01-09T01:39:48.961Z,0.00
2023-01-09T01:41:09.952Z,0.00
2023-01-09T01:41:48.933Z,0.00
2023-01-09T01:42:48.936Z,0.00
2023-01-09T01:43:48.922Z,0.00
2023-01-09T01:44:48.916Z,0.00
2023-01-09T01:45:48.907Z,0.00
2023-01-09T01:47:09.896Z,0.00
2023-01-09T01:47:48.871Z,0.00
2023-01-09T01:48:48.871Z,0.00
2023-01-09T01:49:48.836Z,0.00
2023-01-09T01:50:48.857Z,0.00
2023-01-09T01:51:48.822Z,0.00
2023-01-09T01:53:09.850Z,0.00
2023-01-09T01:53:48.806Z,0.00
2023-01-09T01:54:48.799Z,0.00
2023-01-09T01:55:48.781Z,0.00
2023-01-09T01:56:48.771Z,0.00
2023-01-09T01:57:48.756Z,0.00
2023-01-09T01:59:09.772Z,0.00
2023-01-09T01:59:48.740Z,0.00
2023-01-09T02:00:48.749Z,0.00
2023-01-09T02:01:48.812Z,0.00
2023-01-09T02:02:48.733Z,0.00
2023-01-09T02:03:48.699Z,0.00
2023-01-09T02:05:09.696Z,0.00
2023-01-09T02:05:48.676Z,0.00
2023-01-09T02:06:48.672Z,0.00
2023-01-09T02:07:48.666Z,0.00
2023-01-09T02:08:48.648Z,0.00
2023-01-09T02:09:48.631Z,0.00
2023-01-09T02:11:09.644Z,0.00
2023-01-09T02:11:48.607Z,0.00
2023-01-09T02:12:48.605Z,0.00
2023-01-09T02:13:48.587Z,0.00
2023-01-09T02:14:48.591Z,0.00
2023-01-09T02:15:48.581Z,0.00
2023-01-09T02:17:09.577Z,0.00
2023-01-09T02:17:48.530Z,0.00
2023-01-09T02:18:48.541Z,0.00
2023-01-09T02:19:48.532Z,0.00
2023-01-09T02:20:48.508Z,0.00
2023-01-09T02:21:48.502Z,0.00
2023-01-09T02:23:09.502Z,0.00
2023-01-09T02:23:48.499Z,0.00
2023-01-09T02:24:48.480Z,0.00
2023-01-09T02:25:48.552Z,0.00
2023-01-09T02:26:48.450Z,0.00
2023-01-09T02:27:48.424Z,0.00
2023-01-09T02:29:09.449Z,0.00
2023-01-09T02:29:48.411Z,0.00
2023-01-09T02:30:48.407Z,0.00
2023-01-09T02:31:48.439Z,0.00
2023-01-09T02:32:48.388Z,0.00
2023-01-09T02:33:48.360Z,0.00
2023-01-09T02:35:09.364Z,0.00
2023-01-09T02:35:48.346Z,0.00
2023-01-09T02:36:48.342Z,0.00
2023-01-09T02:37:48.320Z,0.00
2023-01-09T02:38:48.327Z,0.00
2023-01-09T02:39:48.308Z,0.00
2023-01-09T02:41:09.312Z,0.00
2023-01-09T02:41:48.275Z,0.00
2023-01-09T02:42:48.272Z,0.00
2023-01-09T02:43:48.255Z,0.00
2023-01-09T02:44:48.247Z,0.00
2023-01-09T02:45:48.264Z,0.00
2023-01-09T02:47:09.253Z,0.00
2023-01-09T02:47:48.227Z,0.00
2023-01-09T02:48:48.207Z,0.00
2023-01-09T02:49:48.212Z,0.00
2023-01-09T02:50:48.184Z,0.00
2023-01-09T02:51:48.163Z,0.00
2023-01-09T02:53:09.167Z,0.00
2023-01-09T02:53:49.816Z,0.00
2023-01-09T02:54:48.139Z,0.00
2023-01-09T02:55:48.119Z,0.00
2023-01-09T02:56:48.120Z,0.00
2023-01-09T02:57:48.100Z,0.00
2023-01-09T02:59:09.105Z,0.00
2023-01-09T02:59:48.075Z,0.00
2023-01-09T03:00:48.104Z,0.00
2023-01-09T03:01:48.143Z,0.00
2023-01-09T03:02:48.076Z,0.00
2023-01-09T03:03:48.026Z,0.00
2023-01-09T03:05:09.035Z,0.00
2023-01-09T03:05:48.013Z,0.00
2023-01-09T03:06:48.014Z,0.00
2023-01-09T03:07:48.207Z,0.00
2023-01-09T03:08:47.995Z,0.00
2023-01-09T03:09:47.970Z,0.00
2023-01-09T03:11:08.973Z,0.00
2023-01-09T03:11:47.947Z,0.00
2023-01-09T03:12:47.929Z,0.00
2023-01-09T03:13:48.001Z,0.00
2023-01-09T03:14:47.919Z,0.00
2023-01-09T03:15:47.901Z,0.00
2023-01-09T03:17:08.905Z,0.00
2023-01-09T03:17:47.898Z,0.00
2023-01-09T03:18:47.945Z,0.00
2023-01-09T03:19:47.871Z,0.00
2023-01-09T03:20:47.850Z,0.00
2023-01-09T03:21:47.835Z,0.00
2023-01-09T03:23:08.861Z,0.00
2023-01-09T03:23:47.899Z,0.00
2023-01-09T03:24:47.805Z,0.00
2023-01-09T03:25:47.788Z,0.00
2023-01-09T03:26:47.779Z,0.00
2023-01-09T03:27:47.759Z,0.00
2023-01-09T03:29:08.758Z,0.00
2023-01-09T03:29:47.744Z,0.00
2023-01-09T03:30:47.744Z,0.00
2023-01-09T03:31:47.749Z,0.00
2023-01-09T03:32:47.719Z,0.00
2023-01-09T03:33:47.707Z,0.00
2023-01-09T03:35:08.697Z,0.00
2023-01-09T03:35:47.677Z,0.00
2023-01-09T03:36:47.682Z,0.00
2023-01-09T03:37:47.650Z,0.00
2023-01-09T03:38:47.658Z,0.00
2023-01-09T03:39:47.631Z,0.00
2023-01-09T03:41:08.637Z,0.00
2023-01-09T03:41:47.599Z,0.00
2023-01-09T03:42:47.591Z,0.00
2023-01-09T03:43:47.611Z,0.00
2023-01-09T03:44:54.719Z,0.00
2023-01-09T03:46:51.488Z,0.00
2023-01-09T03:47:53.032Z,0.00
2023-01-09T03:49:55.380Z,0.00
2023-01-09T03:50:55.369Z,0.00
2023-01-09T03:52:48.797Z,0.00
2023-01-09T03:53:48.782Z,0.00
2023-01-09T03:55:42.289Z,0.00
2023-01-09T03:56:41.647Z,0.00
2023-01-09T03:58:45.617Z,0.00
2023-01-09T03:59:45.606Z,0.00
2023-01-09T04:01:49.716Z,0.00
2023-01-09T04:02:49.562Z,0.00
2023-01-09T04:04:53.529Z,0.00
2023-01-09T04:05:53.519Z,0.00
2023-01-09T04:07:57.515Z,0.00
2023-01-09T04:08:57.500Z,0.00
2023-01-09T04:10:50.591Z,0.00
2023-01-09T04:11:50.577Z,0.00
2023-01-09T04:13:54.543Z,0.00
2023-01-09T04:14:54.529Z,0.00
2023-01-09T04:16:58.509Z,0.00
2023-01-09T04:17:58.485Z,0.00
2023-01-09T04:19:51.581Z,0.00
2023-01-09T04:20:52.113Z,0.00
2023-01-09T04:22:44.660Z,0.00
2023-01-09T04:23:44.662Z,0.00
2023-01-09T04:25:37.554Z,0.00
2023-01-09T04:26:37.541Z,0.00
2023-01-09T04:28:41.513Z,0.00
2023-01-09T04:29:41.496Z,0.00
2023-01-09T04:31:45.538Z,0.00
2023-01-09T04:32:45.447Z,0.00
2023-01-09T04:34:49.434Z,0.00
2023-01-09T04:35:49.420Z,0.00
2023-01-09T04:37:53.574Z,0.00
2023-01-09T04:38:53.376Z,0.00
2023-01-09T04:40:57.362Z,0.00
2023-01-09T04:41:57.335Z,0.00
2023-01-09T04:44:01.324Z,0.00
2023-01-09T04:45:01.322Z,0.00
2023-01-09T04:46:54.792Z,0.00
2023-01-09T04:47:54.776Z,0.00
2023-01-09T04:49:47.863Z,0.00
2023-01-09T04:50:47.847Z,0.00
2023-01-09T04:52:51.829Z,0.00
2023-01-09T04:53:51.820Z,0.00
2023-01-09T04:55:44.732Z,0.00
2023-01-09T04:56:44.702Z,0.00
2023-01-09T04:58:37.793Z,0.00
2023-01-09T04:59:37.782Z,0.00
2023-01-09T05:01:41.974Z,0.00
2023-01-09T05:02:41.742Z,0.00
2023-01-09T05:04:45.716Z,0.00
2023-01-09T05:05:45.695Z,0.00
2023-01-09T05:07:49.681Z,0.00
2023-01-09T05:08:49.654Z,0.00
2023-01-09T05:10:53.638Z,0.00
2023-01-09T05:11:53.618Z,0.00
2023-01-09T05:13:57.605Z,0.00
2023-01-09T05:14:57.681Z,0.00
2023-01-09T05:17:01.572Z,0.00
2023-01-09T05:18:01.547Z,0.00
2023-01-09T05:19:54.636Z,0.00
2023-01-09T05:20:54.622Z,0.00
2023-01-09T05:22:58.647Z,0.00
2023-01-09T05:23:58.625Z,0.00
2023-01-09T05:25:51.523Z,0.00
2023-01-09T05:26:51.506Z,0.00
2023-01-09T05:28:44.607Z,0.00
2023-01-09T05:29:44.575Z,0.00
2023-01-09T05:31:48.602Z,0.00
2023-01-09T05:32:48.574Z,0.00
2023-01-09T05:34:52.550Z,0.00
2023-01-09T05:35:52.539Z,0.00
2023-01-09T05:37:56.506Z,0.00
2023-01-09T05:38:56.486Z,0.00
2023-01-09T05:41:00.474Z,0.00
2023-01-09T05:42:00.436Z,0.00
2023-01-09T05:44:04.419Z,0.00
2023-01-09T05:45:04.405Z,0.00
2023-01-09T05:47:08.398Z,0.00
2023-01-09T05:48:08.366Z,0.00
2023-01-09T05:50:01.814Z,0.00
2023-01-09T05:51:01.775Z,0.00
2023-01-09T05:52:54.880Z,0.00
2023-01-09T05:53:54.846Z,0.00
2023-01-09T05:55:47.757Z,0.00
2023-01-09T05:56:47.731Z,0.00
2023-01-09T05:58:40.825Z,0.00
2023-01-09T05:59:40.809Z,0.00
2023-01-09T06:01:44.843Z,0.00
2023-01-09T06:02:44.876Z,0.00
2023-01-09T06:04:48.768Z,0.00
2023-01-09T06:05:48.730Z,0.00
2023-01-09T06:07:52.732Z,0.00
2023-01-09T06:08:52.711Z,0.00
2023-01-09T06:10:56.692Z,0.00
2023-01-09T06:11:56.670Z,0.00
2023-01-09T06:14:00.637Z,0.00
2023-01-09T06:15:00.622Z,0.00
2023-01-09T06:17:04.608Z,0.00
2023-01-09T06:18:04.593Z,0.00
2023-01-09T06:19:57.686Z,0.00
2023-01-09T06:20:57.663Z,0.00
2023-01-09T06:23:01.697Z,0.00
2023-01-09T06:24:01.729Z,0.00
2023-01-09T06:25:54.610Z,0.00
2023-01-09T06:26:54.597Z,0.00
2023-01-09T06:28:58.570Z,0.00
2023-01-09T06:29:58.580Z,0.00
2023-01-09T06:32:02.550Z,0.00
2023-01-09T06:33:02.511Z,0.00
2023-01-09T06:35:06.497Z,0.00
2023-01-09T06:36:06.472Z,0.00
2023-01-09T06:37:59.558Z,0.00
2023-01-09T06:38:59.546Z,0.00
2023-01-09T06:41:03.530Z,0.00
2023-01-09T06:42:03.506Z,0.00
2023-01-09T06:44:07.497Z,0.00
2023-01-09T06:45:07.488Z,0.00
2023-01-09T06:47:00.581Z,0.00
2023-01-09T06:48:00.561Z,0.00
2023-01-09T06:49:53.656Z,0.00
2023-01-09T06:50:53.635Z,0.00
2023-01-09T06:52:57.604Z,0.00
2023-01-09T06:53:57.584Z,0.00
2023-01-09T06:55:50.490Z,4.00
2023-01-09T06:56:50.485Z,4.00
2023-01-09T06:58:43.559Z,4.00
2023-01-09T06:59:43.550Z,8.00
2023-01-09T07:01:47.652Z,12.00
2023-01-09T07:02:47.501Z,12.00
2023-01-09T07:04:51.480Z,16.00
2023-01-09T07:05:51.463Z,16.00
2023-01-09T07:07:55.504Z,24.00
2023-01-09T07:08:55.407Z,24.00
2023-01-09T07:10:59.406Z,28.00
2023-01-09T07:11:59.382Z,36.00
2023-01-09T07:14:03.347Z,44.00
2023-01-09T07:15:03.331Z,48.00
2023-01-09T07:17:07.337Z,56.00
2023-01-09T07:18:07.319Z,56.00
2023-01-09T07:20:11.322Z,60.00
2023-01-09T07:21:11.300Z,64.00
2023-01-09T07:23:15.256Z,72.00
2023-01-09T07:24:15.243Z,72.00
2023-01-09T07:26:08.166Z,72.00
2023-01-09T07:27:08.149Z,68.00
2023-01-09T07:29:12.115Z,64.00
2023-01-09T07:30:12.091Z,76.00
2023-01-09T07:32:16.058Z,104.00
2023-01-09T07:33:16.048Z,96.00
2023-01-09T07:35:09.142Z,108.00
2023-01-09T07:36:09.120Z,120.00
2023-01-09T07:38:13.119Z,112.00
2023-01-09T07:39:13.088Z,112.00
2023-01-09T07:41:06.184Z,128.00
2023-01-09T07:42:06.162Z,124.00
2023-01-09T07:44:11.174Z,156.00
2023-01-09T07:45:10.148Z,168.00
2023-01-09T07:47:14.149Z,208.00
2023-01-09T07:48:14.128Z,224.00
2023-01-09T07:50:07.234Z,196.00
2023-01-09T07:51:07.213Z,180.00
2023-01-09T07:53:00.318Z,216.00
2023-01-09T07:54:00.297Z,296.00
2023-01-09T07:55:53.196Z,192.00
2023-01-09T07:56:53.166Z,192.00
2023-01-09T07:58:57.162Z,176.00
2023-01-09T07:59:57.163Z,168.00
2023-01-09T08:01:50.314Z,136.00
2023-01-09T08:02:50.313Z,148.00
2023-01-09T08:04:54.193Z,188.00
2023-01-09T08:05:54.168Z,212.00
2023-01-09T08:07:58.180Z,284.00
2023-01-09T08:08:58.152Z,308.00
2023-01-09T08:11:02.136Z,276.00
2023-01-09T08:12:02.114Z,324.00
2023-01-09T08:14:06.137Z,336.00
2023-01-09T08:15:06.091Z,336.00
2023-01-09T08:17:10.092Z,600.00
2023-01-09T08:18:10.072Z,588.00
2023-01-09T08:20:14.044Z,472.00
2023-01-09T08:21:14.024Z,428.00
2023-01-09T08:23:18.026Z,352.00
2023-01-09T08:24:18.009Z,340.00
2023-01-09T08:26:10.999Z,376.00
2023-01-09T08:27:10.908Z,392.00
2023-01-09T08:29:14.869Z,308.00
2023-01-09T08:30:14.846Z,344.00
2023-01-09T08:32:18.816Z,536.00
2023-01-09T08:33:18.804Z,668.00
2023-01-09T08:35:11.901Z,744.00
2023-01-09T08:36:11.906Z,720.00
2023-01-09T08:38:15.863Z,876.00
2023-01-09T08:39:15.838Z,776.00
2023-01-09T08:41:19.819Z,756.00
2023-01-09T08:42:19.802Z,1004.00
2023-01-09T08:44:23.767Z,672.00
2023-01-09T08:45:23.750Z,556.00
2023-01-09T08:47:16.853Z,788.00
2023-01-09T08:48:16.833Z,1036.00
2023-01-09T08:50:09.943Z,908.00
2023-01-09T08:51:09.909Z,520.00
2023-01-09T08:52:09.905Z,360.00
2023-01-09T08:53:09.889Z,396.00
2023-01-09T08:54:09.881Z,604.00
2023-01-09T08:55:09.871Z,984.00
2023-01-09T08:56:09.860Z,716.00
2023-01-09T08:57:09.853Z,520.00
2023-01-09T08:58:09.844Z,364.00
2023-01-09T08:59:09.826Z,304.00
2023-01-09T09:00:09.818Z,448.00
2023-01-09T09:01:09.805Z,480.00
2023-01-09T09:02:09.906Z,424.00
2023-01-09T09:03:09.816Z,408.00
2023-01-09T09:04:09.776Z,396.00
2023-01-09T09:05:09.780Z,476.00
2023-01-09T09:06:09.775Z,516.00
2023-01-09T09:07:09.745Z,752.00
2023-01-09T09:08:09.736Z,928.00
2023-01-09T09:09:09.723Z,884.00
2023-01-09T09:10:09.719Z,700.00
2023-01-09T09:11:09.703Z,568.00
2023-01-09T09:12:09.693Z,560.00
2023-01-09T09:13:09.690Z,648.00
2023-01-09T09:14:09.671Z,1052.00
2023-01-09T09:15:09.665Z,1036.00
2023-01-09T09:16:09.692Z,1044.00
2023-01-09T09:17:09.641Z,992.00
2023-01-09T09:18:09.640Z,964.00
2023-01-09T09:19:09.617Z,1008.00
2023-01-09T09:20:09.607Z,1032.00
2023-01-09T09:21:11.447Z,1000.00
2023-01-09T09:22:09.597Z,1128.00
2023-01-09T09:23:09.585Z,1120.00
2023-01-09T09:24:09.567Z,1256.00
2023-01-09T09:25:09.559Z,1300.00
2023-01-09T09:26:09.548Z,1152.00
2023-01-09T09:27:09.540Z,1056.00
2023-01-09T09:28:09.543Z,1136.00
2023-01-09T09:29:09.516Z,932.00
2023-01-09T09:30:09.546Z,704.00
2023-01-09T09:31:09.564Z,724.00
2023-01-09T09:32:09.485Z,800.00
2023-01-09T09:33:09.477Z,652.00
2023-01-09T09:34:09.464Z,624.00
2023-01-09T09:35:09.451Z,608.00
2023-01-09T09:36:09.450Z,632.00
2023-01-09T09:37:09.561Z,592.00
2023-01-09T09:38:09.425Z,620.00
2023-01-09T09:39:09.414Z,920.00
2023-01-09T09:40:18.098Z,952.00
2023-01-09T09:41:09.390Z,856.00
2023-01-09T09:42:09.382Z,588.00
2023-01-09T09:43:09.606Z,632.00
2023-01-09T09:44:09.363Z,568.00
2023-01-09T09:45:09.357Z,592.00
2023-01-09T09:46:09.356Z,676.00
2023-01-09T09:47:09.330Z,748.00
2023-01-09T09:48:09.324Z,724.00
2023-01-09T09:49:09.308Z,664.00
2023-01-09T09:50:09.292Z,644.00
2023-01-09T09:51:09.286Z,532.00
2023-01-09T09:52:09.282Z,552.00
2023-01-09T09:53:09.272Z,724.00
2023-01-09T09:54:09.254Z,716.00
2023-01-09T09:55:09.272Z,1060.00
2023-01-09T09:56:09.237Z,1032.00
2023-01-09T09:57:09.224Z,1336.00
2023-01-09T09:58:09.219Z,1600.00
2023-01-09T09:59:09.208Z,1556.00
2023-01-09T10:00:09.197Z,1968.00
2023-01-09T10:01:09.307Z,1516.00
2023-01-09T10:02:09.218Z,2056.00
2023-01-09T10:03:09.211Z,2268.00
2023-01-09T10:04:09.162Z,2408.00
2023-01-09T10:05:09.150Z,2308.00
2023-01-09T10:06:09.156Z,1708.00
2023-01-09T10:07:09.141Z,1636.00
2023-01-09T10:08:15.662Z,1452.00
2023-01-09T10:09:09.109Z,1136.00
2023-01-09T10:10:09.099Z,1072.00
2023-01-09T10:11:09.087Z,1080.00
2023-01-09T10:12:09.081Z,1520.00
2023-01-09T10:13:09.070Z,2020.00
2023-01-09T10:14:22.917Z,2260.00
2023-01-09T10:15:09.049Z,1880.00
2023-01-09T10:16:09.096Z,2436.00
2023-01-09T10:17:09.029Z,2088.00
2023-01-09T10:18:09.020Z,2072.00
2023-01-09T10:19:09.016Z,1924.00
2023-01-09T10:20:09.000Z,1732.00
2023-01-09T10:21:08.992Z,2144.00
2023-01-09T10:22:08.979Z,2028.00
2023-01-09T10:23:08.977Z,2772.00
2023-01-09T10:24:08.959Z,2936.00
2023-01-09T10:25:08.958Z,2908.00
2023-01-09T10:26:08.941Z,2620.00
2023-01-09T10:27:08.932Z,2884.00
2023-01-09T10:28:08.919Z,2720.00
2023-01-09T10:29:08.917Z,3136.00
2023-01-09T10:30:08.903Z,3164.00
2023-01-09T10:31:09.011Z,3100.00
2023-01-09T10:32:08.882Z,3232.00
2023-01-09T10:33:08.874Z,3476.00
2023-01-09T10:34:08.863Z,3384.00
2023-01-09T10:35:08.864Z,2632.00
2023-01-09T10:36:08.847Z,2560.00
2023-01-09T10:37:08.911Z,2636.00
2023-01-09T10:38:08.824Z,2804.00
2023-01-09T10:39:08.817Z,3216.00
2023-01-09T10:40:08.808Z,3364.00
2023-01-09T10:41:08.795Z,3176.00
2023-01-09T10:42:08.785Z,2652.00
2023-01-09T10:43:08.774Z,2604.00
2023-01-09T10:44:08.772Z,2336.00
2023-01-09T10:45:08.758Z,2368.00
2023-01-09T10:46:08.790Z,1952.00
2023-01-09T10:47:08.744Z,1880.00
2023-01-09T10:48:08.730Z,1828.00
2023-01-09T10:49:08.825Z,1556.00
2023-01-09T10:50:08.718Z,1644.00
2023-01-09T10:51:08.704Z,1484.00
2023-01-09T10:52:08.691Z,1264.00
2023-01-09T10:53:08.683Z,1116.00
2023-01-09T10:54:08.689Z,1116.00
2023-01-09T10:55:08.666Z,936.00
2023-01-09T10:56:08.657Z,1080.00
2023-01-09T10:57:08.647Z,1196.00
2023-01-09T10:58:08.636Z,1228.00
2023-01-09T10:59:08.630Z,1112.00
2023-01-09T11:00:08.626Z,1032.00
2023-01-09T11:01:08.613Z,1128.00
2023-01-09T11:02:08.624Z,1328.00
2023-01-09T11:03:08.603Z,1556.00
2023-01-09T11:04:08.578Z,1420.00
2023-01-09T11:05:08.572Z,1236.00
2023-01-09T11:06:08.565Z,1192.00
2023-01-09T11:07:08.557Z,940.00
2023-01-09T11:08:08.548Z,948.00
2023-01-09T11:09:08.536Z,1128.00
2023-01-09T11:10:08.530Z,1484.00
2023-01-09T11:11:08.521Z,1552.00
2023-01-09T11:12:08.507Z,1264.00
2023-01-09T11:13:08.495Z,1408.00
2023-01-09T11:14:08.493Z,1304.00
2023-01-09T11:15:08.478Z,1316.00
2023-01-09T11:16:08.552Z,1276.00
2023-01-09T11:17:08.459Z,1444.00
2023-01-09T11:18:08.454Z,1512.00
2023-01-09T11:19:08.443Z,1112.00
2023-01-09T11:20:08.457Z,1320.00
2023-01-09T11:21:08.421Z,1868.00
2023-01-09T11:22:08.412Z,1664.00
2023-01-09T11:23:08.396Z,1052.00
2023-01-09T11:24:08.392Z,744.00
2023-01-09T11:25:08.391Z,1064.00
2023-01-09T11:26:10.884Z,1020.00
2023-01-09T11:27:08.369Z,1060.00
2023-01-09T11:28:08.355Z,1520.00
2023-01-09T11:29:08.353Z,1632.00
2023-01-09T11:30:08.336Z,2164.00
2023-01-09T11:31:08.366Z,2576.00
2023-01-09T11:32:08.317Z,2236.00
2023-01-09T11:33:08.310Z,2504.00
2023-01-09T11:34:08.298Z,2484.00
2023-01-09T11:35:08.309Z,2456.00
2023-01-09T11:36:08.279Z,2128.00
2023-01-09T11:37:08.330Z,1956.00
2023-01-09T11:38:08.273Z,1904.00
2023-01-09T11:39:08.252Z,1752.00
2023-01-09T11:40:08.242Z,1908.00
2023-01-09T11:41:08.235Z,1848.00
2023-01-09T11:42:08.225Z,1560.00
2023-01-09T11:43:08.219Z,1556.00
2023-01-09T11:44:08.205Z,1472.00
2023-01-09T11:45:08.203Z,1268.00
2023-01-09T11:46:08.212Z,1120.00
2023-01-09T11:47:08.175Z,1148.00
2023-01-09T11:48:08.168Z,1304.00
2023-01-09T11:49:08.188Z,1548.00
2023-01-09T11:50:08.161Z,1944.00
2023-01-09T11:51:08.138Z,2348.00
2023-01-09T11:52:08.128Z,2536.00
2023-01-09T11:53:08.121Z,2412.00
2023-01-09T11:54:08.125Z,2224.00
2023-01-09T11:55:08.105Z,1796.00
2023-01-09T11:56:08.097Z,1720.00
2023-01-09T11:57:08.091Z,1768.00
2023-01-09T11:58:08.079Z,1876.00
2023-01-09T11:59:08.065Z,2084.00
2023-01-09T12:00:08.055Z,2276.00
2023-01-09T12:01:08.045Z,2320.00
2023-01-09T12:02:08.058Z,2332.00
2023-01-09T12:03:08.093Z,2396.00
2023-01-09T12:04:08.017Z,2444.00
2023-01-09T12:05:08.007Z,2480.00
2023-01-09T12:06:08.007Z,2484.00
2023-01-09T12:07:07.989Z,2680.00
2023-01-09T12:08:07.992Z,2920.00
2023-01-09T12:09:07.973Z,3068.00
2023-01-09T12:10:07.963Z,3072.00
2023-01-09T12:11:07.945Z,3076.00
2023-01-09T12:12:07.942Z,3028.00
2023-01-09T12:13:07.936Z,2908.00
2023-01-09T12:14:07.924Z,3092.00
2023-01-09T12:15:09.953Z,3340.00
2023-01-09T12:16:07.948Z,3752.00
2023-01-09T12:17:07.893Z,4076.00
2023-01-09T12:18:07.889Z,4300.00
2023-01-09T12:19:07.880Z,4220.00
2023-01-09T12:20:07.884Z,3856.00
2023-01-09T12:21:07.857Z,3592.00
2023-01-09T12:22:07.849Z,3280.00
2023-01-09T12:23:07.840Z,3140.00
2023-01-09T12:24:07.835Z,2932.00
2023-01-09T12:25:07.822Z,3188.00
2023-01-09T12:26:07.817Z,3056.00
2023-01-09T12:27:07.807Z,2756.00
2023-01-09T12:28:07.793Z,2724.00
2023-01-09T12:29:07.784Z,1976.00
2023-01-09T12:30:07.774Z,2424.00
2023-01-09T12:31:07.767Z,2464.00
2023-01-09T12:32:07.814Z,2028.00
2023-01-09T12:33:07.751Z,1728.00
2023-01-09T12:34:07.735Z,1600.00
2023-01-09T12:35:07.728Z,1456.00
2023-01-09T12:36:07.745Z,1376.00
2023-01-09T12:37:10.060Z,1320.00
2023-01-09T12:38:07.701Z,1360.00
2023-01-09T12:39:07.695Z,1420.00
2023-01-09T12:40:07.688Z,1540.00
2023-01-09T12:41:08.205Z,1712.00
2023-01-09T12:42:07.771Z,1720.00
2023-01-09T12:43:07.655Z,1584.00
2023-01-09T12:44:07.647Z,1504.00
2023-01-09T12:45:07.638Z,1608.00
2023-01-09T12:46:07.689Z,1688.00
2023-01-09T12:47:07.616Z,1600.00
2023-01-09T12:48:07.608Z,1696.00
2023-01-09T12:49:07.599Z,1832.00
2023-01-09T12:50:07.591Z,1948.00
2023-01-09T12:51:07.587Z,1880.00
2023-01-09T12:52:07.573Z,1756.00
2023-01-09T12:53:07.565Z,1712.00
2023-01-09T12:54:07.554Z,1688.00
2023-01-09T12:55:07.544Z,1472.00
2023-01-09T12:56:07.546Z,1488.00
2023-01-09T12:57:07.532Z,1580.00
2023-01-09T12:58:07.518Z,1868.00
2023-01-09T12:59:07.513Z,2476.00
2023-01-09T13:00:07.496Z,3404.00
2023-01-09T13:01:07.538Z,3120.00
2023-01-09T13:02:07.543Z,3076.00
2023-01-09T13:03:12.483Z,3452.00
2023-01-09T13:04:07.458Z,4156.00
2023-01-09T13:05:07.453Z,3964.00
2023-01-09T13:06:07.441Z,2592.00
2023-01-09T13:07:07.431Z,2608.00
2023-01-09T13:08:07.423Z,2820.00
2023-01-09T13:09:07.417Z,2532.00
2023-01-09T13:10:07.668Z,2148.00
2023-01-09T13:11:19.272Z,1824.00
2023-01-09T13:12:08.945Z,1884.00
2023-01-09T13:13:07.375Z,1924.00
2023-01-09T13:14:07.368Z,1968.00
2023-01-09T13:15:07.366Z,1704.00
2023-01-09T13:16:07.408Z,1616.00
2023-01-09T13:17:07.340Z,1424.00
2023-01-09T13:18:07.349Z,1264.00
2023-01-09T13:19:07.331Z,1356.00
2023-01-09T13:20:07.314Z,1336.00
2023-01-09T13:21:07.304Z,1748.00
2023-01-09T13:22:07.295Z,1740.00
2023-01-09T13:23:07.303Z,1608.00
2023-01-09T13:24:07.282Z,1484.00
2023-01-09T13:25:07.272Z,1488.00
2023-01-09T13:26:07.259Z,1392.00
2023-01-09T13:27:07.250Z,1416.00
2023-01-09T13:28:07.245Z,1472.00
2023-01-09T13:29:07.233Z,1548.00
2023-01-09T13:30:07.221Z,1616.00
2023-01-09T13:31:07.216Z,1704.00
2023-01-09T13:32:07.204Z,1864.00
2023-01-09T13:33:07.191Z,1960.00
2023-01-09T13:34:14.247Z,2068.00
2023-01-09T13:35:07.178Z,2032.00
2023-01-09T13:36:07.170Z,2020.00
2023-01-09T13:37:07.207Z,1992.00
2023-01-09T13:38:07.148Z,2048.00
2023-01-09T13:39:07.139Z,1936.00
2023-01-09T13:40:07.130Z,1712.00
2023-01-09T13:41:07.123Z,1516.00
2023-01-09T13:42:07.122Z,1492.00
2023-01-09T13:43:07.105Z,1352.00
2023-01-09T13:44:07.097Z,1512.00
2023-01-09T13:45:07.082Z,1784.00
2023-01-09T13:46:07.139Z,1572.00
2023-01-09T13:47:07.063Z,1440.00
2023-01-09T13:48:07.056Z,1496.00
2023-01-09T13:49:07.046Z,1336.00
2023-01-09T13:50:07.041Z,1368.00
2023-01-09T13:51:07.027Z,1372.00
2023-01-09T13:52:07.018Z,1128.00
2023-01-09T13:53:07.008Z,992.00
2023-01-09T13:54:06.998Z,1068.00
2023-01-09T13:55:06.991Z,1212.00
2023-01-09T13:56:06.987Z,1084.00
2023-01-09T13:57:06.971Z,1052.00
2023-01-09T13:58:06.963Z,844.00
2023-01-09T13:59:06.952Z,728.00
2023-01-09T14:00:06.940Z,628.00
2023-01-09T14:01:07.499Z,620.00
2023-01-09T14:02:06.965Z,788.00
2023-01-09T14:03:06.914Z,660.00
2023-01-09T14:04:06.906Z,624.00
2023-01-09T14:05:06.893Z,644.00
2023-01-09T14:06:06.885Z,660.00
2023-01-09T14:07:06.885Z,636.00
2023-01-09T14:08:06.881Z,572.00
2023-01-09T14:09:06.876Z,684.00
2023-01-09T14:10:06.848Z,588.00
2023-01-09T14:11:06.841Z,660.00
2023-01-09T14:12:06.839Z,596.00
2023-01-09T14:13:06.824Z,812.00
2023-01-09T14:14:06.811Z,764.00
2023-01-09T14:15:06.804Z,792.00
2023-01-09T14:16:06.827Z,792.00
2023-01-09T14:17:06.778Z,664.00
2023-01-09T14:18:06.796Z,584.00
2023-01-09T14:19:06.770Z,580.00
2023-01-09T14:20:06.770Z,536.00
2023-01-09T14:22:06.744Z,488.00
2023-01-09T14:23:28.109Z,420.00
2023-01-09T14:24:07.424Z,372.00
2023-01-09T14:25:06.722Z,388.00
2023-01-09T14:26:06.726Z,408.00
2023-01-09T14:27:06.694Z,472.00